Weather History for KGGI - March, 2014

Change the Weather History Date:

Monday, March 31, 2014

  Actual Average (KMIW) Record (KMIW)
Temperature  
Mean Temperature 50 °F 43 °F  
Max Temperature 71 °F 54 °F 72 °F (2014)
Min Temperature 30 °F 32 °F 19 °F (1997)
Degree Days  
Heating Degree Days 14 22  
Month to date heating degree days 894  
Since 1 July heating degree days 6301  
Cooling Degree Days 0 0  
Month to date cooling degree days 0  
Year to date cooling degree days 0  
Moisture  
Dew Point 37 °F    
Average Humidity 56    
Maximum Humidity 82    
Minimum Humidity 32    
Precipitation  
Precipitation 0.04 in 0.10 in 0.55 in (2007)
Month to date precipitation 2.00  
Sea Level Pressure  
Sea Level Pressure 29.67 in    
Wind  
Wind Speed 18 mph (SSE)    
Max Wind Speed 32 mph    
Max Gust Speed 40 mph    
Visibility 10 miles    
Events Rain    
T = Trace of Precipitation, MM = Missing Value Source: NWS Daily Summary

Daily Weather History Graph

Daily Weather History Graph

Search for Another Location

Airport or City:

Trip Planner

Search our weather history database for the weather conditions in past years. The results will help you decide how hot, cold, wet, or windy it might be!

Date:

Astronomy

Mar. 31, 2014 Rise Set
Actual Time 6:55 AM CDT 7:35 PM CDT
Civil Twilight 6:27 AM CDT 8:03 PM CDT
Nautical Twilight 5:54 AM CDT 8:36 PM CDT
Astronomical Twilight 5:20 AM CDT 9:10 PM CDT
Moon 7:18 AM CDT (3/31) 8:56 PM CDT (3/31)
Length of Visible Light 13h 35m
Length of Day
12h 39m
New Moon, 1% of the Moon is Illuminated
Mar 31
New Moon
Apr 7
First Quarter
Apr 15
Full
Apr 22
Last Quarter
Apr 29
New

Hourly Weather History & Observations

Time (CDT) Temp. Windchill Dew Point Humidity Pressure Visibility Wind Dir Wind Speed Gust Speed Precip Events Conditions
12:15 AM 48.4 °F - 32.4 °F 54% 29.84 in 10.0 mi ESE 10.4 mph - N/A   Clear
12:35 AM 49.6 °F - 32.0 °F 51% 29.84 in 10.0 mi SE 12.7 mph - N/A   Clear
12:55 AM 50.7 °F - 32.0 °F 49% 29.84 in 10.0 mi SE 13.8 mph 19.6 mph N/A   Clear
1:15 AM 50.9 °F - 32.0 °F 48% 29.83 in 10.0 mi SE 12.7 mph - N/A   Clear
1:35 AM 50.9 °F - 32.0 °F 48% 29.83 in 10.0 mi SE 15.0 mph - N/A   Clear
1:55 AM 50.5 °F - 32.0 °F 49% 29.82 in 10.0 mi SE 15.0 mph - N/A   Clear
2:15 AM 50.9 °F - 32.0 °F 48% 29.82 in 10.0 mi SE 11.5 mph - N/A   Clear
2:35 AM 50.4 °F - 32.4 °F 50% 29.82 in 10.0 mi SE 12.7 mph - N/A   Clear
2:55 AM 50.9 °F - 32.2 °F 49% 29.81 in 10.0 mi SE 15.0 mph - N/A   Clear
3:15 AM 50.9 °F - 32.4 °F 49% 29.80 in 10.0 mi SE 17.3 mph - N/A   Clear
3:35 AM 50.9 °F - 32.5 °F 49% 29.79 in 10.0 mi SE 18.4 mph - N/A   Clear
3:55 AM 50.9 °F - 32.9 °F 50% 29.78 in 10.0 mi SE 17.3 mph 21.9 mph N/A   Clear
4:15 AM 50.9 °F - 33.4 °F 51% 29.77 in 10.0 mi SE 17.3 mph 23.0 mph N/A   Clear
4:35 AM 50.9 °F - 33.4 °F 51% 29.76 in 10.0 mi SE 18.4 mph - N/A   Clear
4:55 AM 50.9 °F - 33.8 °F 52% 29.75 in 10.0 mi SE 19.6 mph 24.2 mph N/A   Clear
5:15 AM 50.7 °F - 34.2 °F 53% 29.74 in 10.0 mi SE 20.7 mph 25.3 mph N/A   Clear
5:35 AM 50.9 °F - 34.5 °F 54% 29.73 in 10.0 mi SE 20.7 mph 25.3 mph N/A   Clear
5:55 AM 50.5 °F - 34.9 °F 55% 29.71 in 10.0 mi SE 20.7 mph 26.5 mph N/A   Clear
6:15 AM 50.5 °F - 35.2 °F 56% 29.72 in 10.0 mi SE 17.3 mph - N/A   Clear
6:35 AM 50.0 °F - 35.8 °F 58% 29.71 in 10.0 mi SE 17.3 mph 25.3 mph N/A   Clear
6:55 AM 50.0 °F - 36.1 °F 59% 29.72 in 10.0 mi SE 17.3 mph 24.2 mph N/A   Clear
7:15 AM 49.6 °F - 36.7 °F 61% 29.72 in 10.0 mi SE 17.3 mph - N/A   Clear
7:35 AM 49.8 °F - 37.0 °F 61% 29.73 in 10.0 mi SE 17.3 mph - N/A   Clear
7:55 AM 49.8 °F - 37.4 °F 62% 29.74 in 10.0 mi SE 17.3 mph - N/A   Clear
8:15 AM 49.8 °F - 37.8 °F 63% 29.74 in 10.0 mi SE 15.0 mph - N/A   Scattered Clouds
8:35 AM 49.5 °F - 38.5 °F 66% 29.74 in 10.0 mi SE 12.7 mph - N/A Rain Light Rain
8:55 AM 49.1 °F - 39.2 °F 69% 29.73 in 10.0 mi SE 13.8 mph - N/A   Overcast
9:15 AM 48.7 °F - 39.7 °F 71% 29.72 in 10.0 mi SE 11.5 mph - N/A Rain Light Rain
9:35 AM 47.8 °F - 41.4 °F 78% 29.71 in 7.0 mi SE 11.5 mph - N/A Rain Light Rain
9:55 AM 48.7 °F - 42.4 °F 79% 29.71 in 10.0 mi SE 13.8 mph - N/A Rain Light Rain
10:10 AM 48.9 °F - 43.5 °F 82% 29.69 in 10.0 mi SE 16.1 mph 21.9 mph N/A   Overcast
10:35 AM 49.5 °F - 43.3 °F 79% 29.67 in 10.0 mi SE 18.4 mph 21.9 mph N/A   Overcast
10:55 AM 51.4 °F - 44.4 °F 77% 29.66 in 10.0 mi SE 21.9 mph 28.8 mph N/A   Overcast
11:15 AM 54.5 °F - 45.1 °F 71% 29.65 in 10.0 mi SE 23.0 mph 28.8 mph N/A   Mostly Cloudy
11:35 AM 55.9 °F - 45.3 °F 68% 29.64 in 10.0 mi SSE 20.7 mph 29.9 mph N/A   Mostly Cloudy
11:55 AM 56.8 °F - 45.3 °F 65% 29.64 in 10.0 mi SSE 24.2 mph 33.4 mph N/A   Scattered Clouds
12:15 PM 59.4 °F - 46.4 °F 62% 29.62 in 10.0 mi SSE 24.2 mph 31.1 mph N/A   Clear
12:35 PM 62.4 °F - 46.0 °F 55% 29.60 in 10.0 mi South 32.2 mph 40.3 mph N/A   Clear
12:55 PM 63.3 °F - 45.1 °F 52% 29.59 in 10.0 mi SSE 26.5 mph 35.7 mph N/A   Clear
1:15 PM 64.8 °F - 44.6 °F 48% 29.58 in 10.0 mi South 27.6 mph 33.4 mph N/A   Clear
1:35 PM 65.8 °F - 44.4 °F 46% 29.57 in 10.0 mi SSE 24.2 mph 38.0 mph N/A   Clear
1:55 PM 67.1 °F - 43.7 °F 43% 29.55 in 10.0 mi South 26.5 mph 35.7 mph N/A   Clear
2:15 PM 68.2 °F - 43.3 °F 41% 29.55 in 10.0 mi South 29.9 mph 39.1 mph N/A   Clear
2:35 PM 68.4 °F - 42.6 °F 39% 29.54 in 10.0 mi South 24.2 mph 38.0 mph N/A   Clear
2:55 PM 69.1 °F - 42.4 °F 38% 29.54 in 10.0 mi South 27.6 mph 38.0 mph N/A   Clear
3:15 PM 69.4 °F - 41.9 °F 37% 29.52 in 10.0 mi South 28.8 mph 36.8 mph N/A   Clear
3:35 PM 70.2 °F - 41.9 °F 36% 29.51 in 10.0 mi South 26.5 mph 34.5 mph N/A   Clear
3:55 PM 70.7 °F - 41.9 °F 35% 29.50 in 10.0 mi South 23.0 mph 35.7 mph N/A   Clear
4:15 PM 71.2 °F - 41.0 °F 33% 29.50 in 10.0 mi South 27.6 mph 36.8 mph N/A   Clear
4:35 PM 70.0 °F - 41.0 °F 35% 29.49 in 10.0 mi South 23.0 mph 33.4 mph N/A   Clear
4:55 PM 71.4 °F - 41.0 °F 33% 29.48 in 10.0 mi SSE 28.8 mph 35.7 mph N/A   Clear
5:15 PM 71.6 °F - 40.5 °F 32% 29.47 in 10.0 mi South 29.9 mph 38.0 mph N/A   Clear
5:35 PM 71.4 °F - 41.0 °F 33% 29.45 in 10.0 mi South 25.3 mph 39.1 mph N/A   Clear
5:55 PM 69.3 °F - 42.6 °F 38% 29.45 in 10.0 mi SSE 26.5 mph 32.2 mph N/A   Clear
6:15 PM 65.8 °F - 44.8 °F 47% 29.43 in 10.0 mi SE 24.2 mph 28.8 mph N/A Rain Light Rain
6:35 PM 60.4 °F - 45.9 °F 59% 29.53 in 7.0 mi West 25.3 mph 40.3 mph 0.04 in Rain Heavy Rain
6:55 PM 55.9 °F - 42.6 °F 61% 29.56 in 10.0 mi West 23.0 mph 31.1 mph 0.04 in   Mostly Cloudy
7:15 PM 53.6 °F - 39.2 °F 58% 29.59 in 10.0 mi WSW 20.7 mph 27.6 mph N/A   Scattered Clouds
7:35 PM 50.0 °F - 37.4 °F 62% 29.60 in 10.0 mi West 23.0 mph 27.6 mph N/A   Clear
7:55 PM 47.5 °F - 35.2 °F 63% 29.62 in 10.0 mi WSW 20.7 mph 24.2 mph N/A   Clear
8:15 PM 45.5 °F 38.3 °F 32.5 °F 61% 29.64 in 10.0 mi WSW 17.3 mph 31.1 mph N/A   Clear
8:35 PM 43.7 °F 36.3 °F 32.5 °F 65% 29.66 in 10.0 mi West 16.1 mph - N/A   Clear
8:55 PM 41.0 °F 30.7 °F 30.2 °F 65% 29.68 in 10.0 mi West 25.3 mph 35.7 mph N/A   Clear
9:15 PM 38.7 °F 29.1 °F 28.8 °F 68% 29.70 in 10.0 mi West 18.4 mph 28.8 mph N/A   Clear
9:35 PM 36.3 °F 25.2 °F 26.8 °F 68% 29.71 in 10.0 mi West 21.9 mph 27.6 mph N/A   Clear
9:55 PM 34.5 °F 22.8 °F 25.2 °F 69% 29.71 in 10.0 mi West 21.9 mph 28.8 mph N/A   Clear
10:15 PM 33.4 °F 22.7 °F 24.8 °F 71% 29.74 in 10.0 mi West 17.3 mph 24.2 mph N/A   Clear
10:35 PM 32.7 °F 20.4 °F 24.4 °F 72% 29.74 in 10.0 mi WSW 21.9 mph 27.6 mph N/A   Clear
10:55 PM 32.0 °F 20.1 °F 24.1 °F 73% 29.74 in 10.0 mi WSW 19.6 mph 26.5 mph N/A   Clear
11:15 PM 32.0 °F 21.2 °F 24.1 °F 73% 29.75 in 10.0 mi WSW 16.1 mph 23.0 mph N/A   Mostly Cloudy
11:35 PM 30.7 °F 18.1 °F 21.2 °F 68% 29.76 in 10.0 mi West 20.7 mph 28.8 mph N/A   Overcast
11:55 PM 30.6 °F 18.6 °F 20.8 °F 67% 29.77 in 10.0 mi WSW 18.4 mph 23.0 mph N/A   Overcast